Time;durP1;ratioP1;P1;durP2;ratioP2;P2;SDS_P1;SDS_P2;PMS_P1;PMS_P2;Temp;Humidity;BMP_temperature;BMP_pressure;BME280_temperature;BME280_humidity;BME280_pressure;Samples;Min_cycle;Max_cycle;Signal;HPM_P1;HPM_P2
2024/03/04 00:02:19;;;;;;;5.78;2.03;;;;;;;18.89;45.29;100634.38;5012055;28;20037;-70
2024/03/04 00:04:44;;;;;;;4.50;2.10;;;;;;;18.89;45.47;100630.91;5013043;28;20075;-68
2024/03/04 00:07:10;;;;;;;4.32;1.77;;;;;;;18.97;45.32;100652.19;5013568;28;20033;-69
2024/03/04 00:09:35;;;;;;;3.25;1.80;;;;;;;18.88;45.14;100640.63;5009009;28;20040;-69
2024/03/04 00:12:00;;;;;;;4.38;2.00;;;;;;;18.89;45.22;100642.28;5013414;28;20041;-69
2024/03/04 00:14:26;;;;;;;3.95;1.90;;;;;;;18.95;45.29;100665.53;5001816;28;20034;-67
2024/03/04 00:16:51;;;;;;;3.78;1.77;;;;;;;18.96;45.50;100658.44;5003255;28;20129;-69
2024/03/04 00:19:18;;;;;;;4.18;1.80;;;;;;;18.84;45.38;100645.34;5014215;28;20030;-69
2024/03/04 00:21:47;;;;;;;4.28;1.80;;;;;;;18.80;45.26;100640.41;5010603;28;20038;-71
2024/03/04 00:24:12;;;;;;;4.05;1.88;;;;;;;18.82;45.32;100633.22;5015774;28;20061;-70
2024/03/04 00:26:37;;;;;;;4.95;2.10;;;;;;;18.83;45.42;100640.16;5015681;28;20514;-69
2024/03/04 00:29:03;;;;;;;5.05;1.88;;;;;;;18.86;45.17;100653.13;5010716;28;20052;-71
2024/03/04 00:31:30;;;;;;;4.15;1.80;;;;;;;18.88;45.23;100661.72;5008443;28;20038;-68
2024/03/04 00:33:56;;;;;;;3.38;1.70;;;;;;;18.75;45.33;100650.56;5016786;28;20039;-68
2024/03/04 00:36:22;;;;;;;4.35;1.77;;;;;;;18.89;45.26;100671.34;5010908;28;20079;-69
2024/03/04 00:38:47;;;;;;;3.42;1.77;;;;;;;18.85;45.17;100667.31;5012343;28;20044;-68
2024/03/04 00:41:13;;;;;;;3.92;1.60;;;;;;;18.88;45.09;100680.22;5016573;28;20041;-69
2024/03/04 00:43:39;;;;;;;4.22;1.80;;;;;;;18.79;45.25;100667.81;5014822;28;20036;-70
2024/03/04 00:46:05;;;;;;;4.05;1.60;;;;;;;18.80;45.00;100680.88;5014661;28;20034;-69
2024/03/04 00:48:31;;;;;;;3.25;1.70;;;;;;;18.84;44.88;100692.84;5002315;28;20050;-68
2024/03/04 00:50:57;;;;;;;4.22;1.70;;;;;;;18.80;44.92;100685.31;5008116;28;20307;-69
2024/03/04 00:53:23;;;;;;;3.67;1.67;;;;;;;18.73;44.90;100674.44;5020557;28;20059;-69
2024/03/04 00:55:49;;;;;;;3.88;1.40;;;;;;;18.70;45.02;100677.34;5012636;28;20030;-67
2024/03/04 00:58:14;;;;;;;2.88;1.45;;;;;;;18.72;44.85;100688.59;5003966;28;20026;-69
2024/03/04 01:00:40;;;;;;;3.47;1.60;;;;;;;18.72;44.94;100701.78;5004806;28;20064;-69
2024/03/04 01:03:05;;;;;;;5.00;1.63;;;;;;;18.77;44.93;100709.31;5009427;28;20177;-68
2024/03/04 01:05:31;;;;;;;4.57;1.63;;;;;;;18.72;44.77;100707.06;5006067;28;20066;-70
2024/03/04 01:07:56;;;;;;;3.95;1.77;;;;;;;18.56;44.79;100685.63;5009299;28;20063;-71
2024/03/04 01:10:22;;;;;;;5.40;1.65;;;;;;;18.63;44.91;100705.25;5010342;28;20032;-69
2024/03/04 01:12:48;;;;;;;4.13;1.65;;;;;;;18.72;44.88;100722.09;5008025;28;20491;-68
2024/03/04 01:15:13;;;;;;;3.15;1.50;;;;;;;18.68;44.60;100724.16;5010033;28;20128;-67
2024/03/04 01:17:39;;;;;;;3.80;1.60;;;;;;;18.74;44.70;100738.63;5010595;28;20168;-69
2024/03/04 01:20:09;;;;;;;3.95;1.38;;;;;;;18.72;44.88;100741.41;5012465;28;20059;-66
2024/03/04 01:22:35;;;;;;;3.45;1.38;;;;;;;18.68;44.45;100734.72;5010973;28;20094;-69
2024/03/04 01:25:00;;;;;;;3.10;1.27;;;;;;;18.62;44.43;100732.59;5007625;28;20549;-68
2024/03/04 01:27:26;;;;;;;3.50;1.50;;;;;;;18.70;44.37;100759.19;5013742;28;20029;-67
2024/03/04 01:29:51;;;;;;;3.53;1.50;;;;;;;18.62;44.36;100748.44;5008963;28;20033;-69
2024/03/04 01:32:19;;;;;;;3.75;1.45;;;;;;;18.64;44.45;100763.19;5010739;28;20418;-68
2024/03/04 01:34:45;;;;;;;3.65;1.42;;;;;;;18.58;44.72;100754.94;5010463;28;20117;-66
2024/03/04 01:37:10;;;;;;;3.25;1.30;;;;;;;18.63;44.72;100772.06;5009916;28;20554;-68
2024/03/04 01:39:36;;;;;;;3.40;1.40;;;;;;;18.58;44.54;100762.84;5008008;28;20480;-68
2024/03/04 01:42:01;;;;;;;3.83;1.20;;;;;;;18.54;44.43;100753.53;5012106;28;20108;-67
2024/03/04 01:44:36;;;;;;;5.35;1.40;;;;;;;18.66;44.16;100773.63;5010192;28;20030;-67
2024/03/04 01:47:04;;;;;;;4.38;1.23;;;;;;;18.66;44.54;100777.09;5008692;28;20033;-68
2024/03/04 01:49:32;;;;;;;3.78;1.38;;;;;;;18.62;44.54;100773.03;5010805;28;20102;-68
2024/03/04 01:51:58;;;;;;;3.20;1.30;;;;;;;18.59;44.34;100769.81;5012310;28;20048;-69
2024/03/04 01:54:24;;;;;;;3.25;1.17;;;;;;;18.57;44.52;100769.13;5006929;28;20030;-70
2024/03/04 01:56:50;;;;;;;3.95;1.10;;;;;;;18.57;44.18;100769.94;5009425;28;20429;-69
2024/03/04 01:59:17;;;;;;;3.80;1.30;;;;;;;18.57;44.30;100767.31;5012796;28;20107;-68
2024/03/04 02:01:44;;;;;;;3.53;1.17;;;;;;;18.56;44.50;100780.63;5012144;28;20479;-68
2024/03/04 02:04:09;;;;;;;4.90;1.40;;;;;;;18.59;44.31;100781.19;5006403;28;20116;-70
2024/03/04 02:06:37;;;;;;;2.63;1.13;;;;;;;18.41;44.21;100761.66;5003798;28;20029;-68
2024/03/04 02:09:02;;;;;;;2.28;0.90;;;;;;;18.58;43.97;100797.16;5007208;28;20037;-69
2024/03/04 02:11:28;;;;;;;3.72;1.40;;;;;;;18.48;44.13;100782.13;5011149;28;20026;-69
2024/03/04 02:13:54;;;;;;;3.90;1.35;;;;;;;18.51;44.40;100788.09;5011656;28;20778;-70
2024/03/04 02:16:20;;;;;;;4.20;1.30;;;;;;;18.57;44.18;100811.34;5010200;28;20038;-70
2024/03/04 02:18:45;;;;;;;2.72;1.30;;;;;;;18.54;44.00;100807.16;5009813;28;20037;-68
2024/03/04 02:21:13;;;;;;;2.47;1.10;;;;;;;18.53;43.99;100805.47;5009902;28;20537;-68
2024/03/04 02:23:38;;;;;;;2.63;1.23;;;;;;;18.57;43.95;100814.81;5008454;28;20055;-68
2024/03/04 02:26:04;;;;;;;3.20;1.17;;;;;;;18.54;44.15;100808.97;5006608;28;20464;-68
2024/03/04 02:28:29;;;;;;;2.88;1.00;;;;;;;18.45;44.16;100805.25;5012989;28;20469;-69
2024/03/04 02:30:59;;;;;;;3.00;1.25;;;;;;;18.51;44.24;100820.59;5008720;28;20034;-68
2024/03/04 02:33:26;;;;;;;3.58;1.40;;;;;;;18.42;44.08;100802.88;5010577;28;20034;-68
2024/03/04 02:35:51;;;;;;;3.47;1.30;;;;;;;18.44;44.17;100800.97;5010337;28;20037;-68
2024/03/04 02:38:17;;;;;;;2.70;1.20;;;;;;;18.54;44.24;100822.97;5007910;28;20111;-70
2024/03/04 02:40:43;;;;;;;3.67;1.30;;;;;;;18.48;44.06;100819.06;5012820;28;20416;-69
2024/03/04 02:43:11;;;;;;;2.70;1.20;;;;;;;18.40;43.97;100810.94;5005519;28;20030;-68
2024/03/04 02:45:38;;;;;;;2.55;1.20;;;;;;;18.44;44.30;100819.44;5013728;28;20138;-69
2024/03/04 02:48:04;;;;;;;3.80;1.30;;;;;;;18.46;44.09;100828.88;5006655;28;20085;-69
2024/03/04 02:50:29;;;;;;;3.33;1.33;;;;;;;18.28;43.98;100799.59;5003504;28;20042;-68
2024/03/04 02:52:55;;;;;;;2.58;1.10;;;;;;;18.48;44.19;100834.91;5002827;28;20034;-69
2024/03/04 02:55:20;;;;;;;4.43;1.10;;;;;;;18.37;44.00;100810.34;5011283;28;20037;-68
2024/03/04 02:57:45;;;;;;;3.37;1.20;;;;;;;18.49;43.79;100836.56;5012234;28;20099;-70
2024/03/04 03:00:11;;;;;;;3.27;1.20;;;;;;;18.34;43.80;100816.75;5009510;28;20262;-67
2024/03/04 03:02:36;;;;;;;2.70;1.17;;;;;;;18.43;43.67;100831.78;5004694;28;20835;-68
2024/03/04 03:05:02;;;;;;;3.33;1.20;;;;;;;18.48;44.15;100847.25;5007788;28;20467;-70
2024/03/04 03:07:27;;;;;;;2.35;1.05;;;;;;;18.43;44.02;100833.59;5006913;28;20100;-68
2024/03/04 03:09:54;;;;;;;2.83;1.20;;;;;;;18.44;43.88;100848.47;5008500;28;20614;-69
2024/03/04 03:12:19;;;;;;;2.47;1.10;;;;;;;18.42;44.00;100847.75;5002739;28;20064;-71
2024/03/04 03:14:44;;;;;;;3.33;1.27;;;;;;;18.33;43.63;100833.53;5005597;28;20057;-69
2024/03/04 03:17:10;;;;;;;2.72;1.33;;;;;;;18.33;43.65;100838.78;5006207;28;20030;-71
2024/03/04 03:19:38;;;;;;;2.60;1.13;;;;;;;18.33;43.67;100844.06;5007162;28;20094;-69
2024/03/04 03:22:04;;;;;;;2.78;1.42;;;;;;;18.39;43.64;100850.63;5010304;28;20407;-70
2024/03/04 03:24:29;;;;;;;4.13;1.40;;;;;;;18.40;43.66;100861.06;5007499;28;20037;-67
2024/03/04 03:26:54;;;;;;;2.47;1.00;;;;;;;18.29;43.95;100840.00;5012254;28;20408;-68
2024/03/04 03:29:20;;;;;;;2.28;1.10;;;;;;;18.21;43.80;100830.06;5007930;28;20040;-68
2024/03/04 03:31:46;;;;;;;2.50;1.20;;;;;;;18.27;43.94;100834.84;5006350;28;20052;-69
2024/03/04 03:34:11;;;;;;;4.25;1.85;;;;;;;18.38;43.83;100855.09;5011128;28;20030;-69
2024/03/04 03:36:43;;;;;;;2.95;1.08;;;;;;;18.30;43.77;100842.50;5014465;28;20548;-70
2024/03/04 03:39:12;;;;;;;2.40;1.10;;;;;;;18.40;43.85;100860.22;5012788;28;20033;-69
2024/03/04 03:41:38;;;;;;;2.42;1.08;;;;;;;18.36;43.80;100845.59;5011337;28;20075;-68
2024/03/04 03:44:04;;;;;;;2.30;1.17;;;;;;;18.33;43.61;100845.88;5010639;28;20109;-68
2024/03/04 03:46:29;;;;;;;3.13;1.20;;;;;;;18.39;43.76;100867.31;5010346;28;20454;-70
2024/03/04 03:48:55;;;;;;;2.72;1.02;;;;;;;18.38;43.57;100865.63;5013820;28;20046;-68
2024/03/04 03:51:20;;;;;;;3.40;1.40;;;;;;;18.33;43.65;100857.25;5015651;28;20033;-69
2024/03/04 03:53:46;;;;;;;3.55;1.10;;;;;;;18.26;43.84;100853.44;5011568;28;20044;-70
2024/03/04 03:56:12;;;;;;;3.03;1.15;;;;;;;18.35;43.53;100871.16;5012259;28;20038;-68
2024/03/04 03:58:38;;;;;;;1.88;1.00;;;;;;;18.34;43.76;100869.50;5009803;28;20502;-69
2024/03/04 04:01:03;;;;;;;2.65;1.10;;;;;;;18.30;43.49;100871.53;5013986;28;20034;-70
2024/03/04 04:03:30;;;;;;;2.58;1.02;;;;;;;18.25;43.78;100871.06;5005717;28;20106;-68
2024/03/04 04:05:56;;;;;;;1.63;0.90;;;;;;;18.31;43.62;100883.78;5013510;28;20033;-68
2024/03/04 04:08:21;;;;;;;2.88;1.00;;;;;;;18.26;43.67;100882.44;5015735;28;20064;-69
2024/03/04 04:10:46;;;;;;;3.03;0.93;;;;;;;18.22;43.59;100873.13;5008729;28;20091;-68
2024/03/04 04:13:11;;;;;;;3.47;1.20;;;;;;;18.19;43.71;100878.66;5010669;28;20503;-68
2024/03/04 04:15:37;;;;;;;2.50;1.17;;;;;;;18.24;43.81;100879.13;5009131;28;20026;-68
2024/03/04 04:18:02;;;;;;;2.50;0.85;;;;;;;18.27;43.41;100892.88;5008260;28;20078;-69
2024/03/04 04:20:27;;;;;;;2.65;0.88;;;;;;;18.17;43.76;100877.94;5011028;28;20029;-68
2024/03/04 04:22:53;;;;;;;2.92;1.02;;;;;;;18.31;43.48;100909.31;5013738;28;20658;-69
2024/03/04 04:25:18;;;;;;;2.03;0.90;;;;;;;18.23;43.38;100895.88;5020338;28;20525;-68
2024/03/04 04:27:45;;;;;;;1.98;0.95;;;;;;;18.29;43.42;100914.72;5016988;28;20048;-69
2024/03/04 04:30:11;;;;;;;2.13;0.80;;;;;;;18.23;43.38;100912.56;5014941;28;20041;-69
2024/03/04 04:32:37;;;;;;;3.25;1.20;;;;;;;18.24;43.52;100916.03;5006916;28;20103;-68
2024/03/04 04:35:05;;;;;;;1.35;0.60;;;;;;;18.29;43.72;100927.06;5012601;28;20461;-69
2024/03/04 04:37:31;;;;;;;1.25;0.60;;;;;;;18.11;43.42;100905.66;5017591;28;20399;-68
2024/03/04 04:39:57;;;;;;;2.97;0.80;;;;;;;18.26;43.42;100936.06;5011566;28;20042;-68
2024/03/04 04:42:22;;;;;;;2.42;0.90;;;;;;;18.28;43.10;100947.34;5001195;28;20103;-71
2024/03/04 04:44:48;;;;;;;1.88;0.88;;;;;;;18.14;43.32;100915.94;5007871;28;20057;-69
2024/03/04 04:47:13;;;;;;;1.75;0.70;;;;;;;18.18;43.56;100921.81;5011683;28;20033;-68
2024/03/04 04:49:38;;;;;;;1.95;0.75;;;;;;;18.26;43.29;100943.13;5013028;28;20026;-69
2024/03/04 04:52:04;;;;;;;1.70;0.60;;;;;;;18.18;43.41;100933.19;5014277;28;20490;-68
2024/03/04 04:54:29;;;;;;;2.30;0.70;;;;;;;18.16;43.29;100936.94;5011950;28;20033;-68
2024/03/04 04:56:54;;;;;;;2.83;0.60;;;;;;;18.16;42.97;100943.03;5007057;28;20029;-68
2024/03/04 04:59:20;;;;;;;1.67;0.70;;;;;;;18.18;43.23;100942.91;5011667;28;20559;-68
2024/03/04 05:01:45;;;;;;;1.60;0.73;;;;;;;18.14;43.25;100939.69;5008271;28;20499;-70
2024/03/04 05:04:11;;;;;;;2.00;0.73;;;;;;;18.10;43.20;100931.19;5009934;28;20034;-68
2024/03/04 05:06:36;;;;;;;2.63;0.90;;;;;;;18.11;43.36;100940.75;5015780;28;20077;-69
2024/03/04 05:09:02;;;;;;;2.70;0.80;;;;;;;18.23;43.20;100953.94;5011133;28;20407;-68
2024/03/04 05:11:27;;;;;;;1.45;0.70;;;;;;;18.21;43.20;100954.06;5009997;28;20022;-68
2024/03/04 05:13:53;;;;;;;2.40;0.70;;;;;;;18.20;43.47;100956.81;5008152;28;20030;-70
2024/03/04 05:16:19;;;;;;;1.30;0.60;;;;;;;18.21;43.22;100956.69;5012712;28;20033;-68
2024/03/04 05:18:44;;;;;;;2.47;0.88;;;;;;;18.22;43.24;100961.00;5011253;28;20085;-68
2024/03/04 05:21:09;;;;;;;2.58;0.80;;;;;;;18.07;43.46;100941.97;5012946;28;20048;-69
2024/03/04 05:23:35;;;;;;;2.45;0.80;;;;;;;18.22;43.39;100961.00;5008810;28;20071;-71
2024/03/04 05:26:01;;;;;;;1.65;0.70;;;;;;;18.14;43.17;100950.25;5011303;28;20367;-68
2024/03/04 05:28:26;;;;;;;2.38;0.80;;;;;;;18.16;43.48;100955.41;5010679;28;20033;-68
2024/03/04 05:30:57;;;;;;;2.40;0.80;;;;;;;18.19;43.13;100968.34;5008806;28;20506;-68
2024/03/04 05:33:22;;;;;;;2.10;0.80;;;;;;;18.16;43.17;100966.78;5010409;28;20026;-68
2024/03/04 05:35:48;;;;;;;1.88;0.70;;;;;;;18.12;43.09;100962.72;5007733;28;20034;-68
2024/03/04 05:38:13;;;;;;;1.45;0.70;;;;;;;18.15;43.42;100974.81;5010923;28;20411;-68
2024/03/04 05:40:38;;;;;;;1.85;0.70;;;;;;;18.14;43.24;100981.88;5014062;28;20069;-70
2024/03/04 05:43:04;;;;;;;1.95;0.80;;;;;;;17.96;42.99;100947.28;5009240;28;20037;-69
2024/03/04 05:45:30;;;;;;;2.03;0.85;;;;;;;18.10;43.20;100980.44;5009111;28;20037;-69
2024/03/04 05:47:55;;;;;;;2.15;0.68;;;;;;;18.04;43.15;100971.22;5010702;28;20053;-68
2024/03/04 05:50:21;;;;;;;2.03;0.80;;;;;;;18.12;42.95;100987.28;5010319;28;20057;-68
2024/03/04 05:52:46;;;;;;;2.00;0.80;;;;;;;18.07;43.00;100984.19;5010806;28;20109;-71
2024/03/04 05:55:12;;;;;;;1.98;0.70;;;;;;;18.04;43.22;100981.78;5008348;28;20079;-68
2024/03/04 05:57:38;;;;;;;1.63;0.60;;;;;;;18.16;43.15;101010.78;5010285;28;20044;-71
2024/03/04 06:00:04;;;;;;;3.13;0.68;;;;;;;18.16;42.96;101014.25;5006199;28;20041;-69
2024/03/04 06:02:30;;;;;;;1.67;0.70;;;;;;;18.16;43.04;101010.78;5008161;28;20045;-68
2024/03/04 06:04:55;;;;;;;1.60;0.70;;;;;;;18.05;43.03;101009.81;5009469;28;20107;-68
2024/03/04 06:07:21;;;;;;;2.05;0.80;;;;;;;18.02;43.04;101004.78;5004845;28;20034;-69
2024/03/04 06:09:46;;;;;;;2.15;0.90;;;;;;;18.07;43.04;101007.06;5004222;28;20089;-68
2024/03/04 06:12:12;;;;;;;3.53;1.02;;;;;;;17.95;42.95;100988.59;5012252;28;20033;-71
2024/03/04 06:14:37;;;;;;;2.38;0.70;;;;;;;18.00;43.03;100998.78;5005337;28;20523;-68
2024/03/04 06:17:03;;;;;;;2.67;0.80;;;;;;;18.11;42.89;101022.53;5009562;28;20041;-70
2024/03/04 06:19:28;;;;;;;2.05;0.80;;;;;;;17.99;43.19;100997.13;5010326;28;20033;-68
2024/03/04 06:21:55;;;;;;;1.75;0.77;;;;;;;18.02;43.39;101009.22;5008935;28;20041;-68
2024/03/04 06:24:20;;;;;;;2.22;0.80;;;;;;;18.16;43.13;101034.53;5009364;28;20033;-70
2024/03/04 06:26:45;;;;;;;1.65;0.70;;;;;;;18.07;43.47;101023.75;5007327;28;20095;-70
2024/03/04 06:29:11;;;;;;;0.73;0.60;;;;;;;18.18;43.30;101037.88;5009943;28;20900;-70
2024/03/04 06:31:36;;;;;;;1.90;0.82;;;;;;;18.08;43.49;101024.56;5009747;28;20038;-69
2024/03/04 06:34:01;;;;;;;1.85;0.60;;;;;;;18.10;43.51;101022.66;5010763;28;20683;-70
2024/03/04 06:36:26;;;;;;;1.10;0.70;;;;;;;18.21;43.54;101040.28;5009515;28;20041;-69
2024/03/04 06:38:52;;;;;;;1.27;0.60;;;;;;;18.03;43.79;101006.47;5008029;28;20511;-69
2024/03/04 06:41:18;;;;;;;2.28;0.70;;;;;;;18.17;43.59;101026.50;5012098;28;20033;-70
2024/03/04 06:43:43;;;;;;;1.55;0.60;;;;;;;18.21;43.75;101025.28;5007820;28;20036;-70
2024/03/04 06:46:09;;;;;;;1.48;0.57;;;;;;;18.28;43.71;101044.94;5006214;28;20056;-68
2024/03/04 06:48:34;;;;;;;1.60;0.60;;;;;;;18.26;43.78;101040.75;5006091;28;20053;-69
2024/03/04 06:51:00;;;;;;;1.73;0.63;;;;;;;18.36;43.99;101040.84;5007638;28;20088;-69
2024/03/04 06:53:25;;;;;;;1.15;0.52;;;;;;;18.26;43.63;101015.22;5006027;28;20125;-68
2024/03/04 06:55:51;;;;;;;3.05;0.60;;;;;;;18.35;43.72;101032.09;5010077;28;20484;-68
2024/03/04 06:58:16;;;;;;;1.60;0.77;;;;;;;18.29;43.41;101017.63;5011084;28;20034;-70
2024/03/04 07:00:41;;;;;;;1.90;0.50;;;;;;;18.38;43.72;101021.31;5011267;28;20031;-69
2024/03/04 07:03:07;;;;;;;1.85;0.77;;;;;;;18.40;43.77;101029.09;5006286;28;20295;-69
2024/03/04 07:05:32;;;;;;;1.73;0.60;;;;;;;18.40;43.75;101023.81;5011712;28;20034;-68
2024/03/04 07:07:58;;;;;;;2.45;0.80;;;;;;;18.36;43.62;101019.75;5017051;28;20131;-68
2024/03/04 07:10:23;;;;;;;1.20;0.50;;;;;;;18.37;43.59;101013.50;5013320;28;20450;-69
2024/03/04 07:12:48;;;;;;;1.15;0.47;;;;;;;18.33;43.86;101010.28;5007619;28;20491;-68
2024/03/04 07:15:13;;;;;;;1.13;0.55;;;;;;;18.47;43.61;101033.78;5004906;28;20041;-67
2024/03/04 07:17:39;;;;;;;1.52;0.40;;;;;;;18.37;43.63;101013.50;5012070;28;20092;-69
2024/03/04 07:20:09;;;;;;;1.35;0.60;;;;;;;18.47;43.75;101032.94;5012683;28;20022;-67
2024/03/04 07:22:34;;;;;;;2.92;0.90;;;;;;;18.48;43.60;101029.31;5012757;28;20143;-67
2024/03/04 07:24:59;;;;;;;1.60;0.85;;;;;;;18.43;43.33;101036.78;5012739;28;20495;-68
2024/03/04 07:27:25;;;;;;;1.42;0.60;;;;;;;18.42;43.11;101038.59;5011161;28;20369;-67
2024/03/04 07:29:50;;;;;;;1.83;0.60;;;;;;;18.44;43.50;101041.94;5015701;28;20091;-68
2024/03/04 07:32:15;;;;;;;1.13;0.50;;;;;;;18.51;43.38;101055.47;5008240;28;20508;-67
2024/03/04 07:34:40;;;;;;;1.20;0.60;;;;;;;18.41;43.34;101036.91;5005925;28;20041;-68
2024/03/04 07:37:06;;;;;;;0.80;0.57;;;;;;;18.54;43.00;101057.03;5006979;28;20057;-69
2024/03/04 07:39:31;;;;;;;1.90;0.73;;;;;;;18.51;43.25;101050.19;5012631;28;20053;-68
2024/03/04 07:41:56;;;;;;;2.40;0.60;;;;;;;18.49;43.47;101044.22;5004862;28;20088;-68
2024/03/04 07:44:21;;;;;;;1.50;0.60;;;;;;;18.38;43.64;101031.88;5009499;28;20278;-68
2024/03/04 07:46:47;;;;;;;1.92;0.68;;;;;;;18.39;43.55;101044.09;5008714;28;20036;-70
2024/03/04 07:49:13;;;;;;;2.10;0.60;;;;;;;18.36;43.66;101036.44;5012783;28;20115;-70
2024/03/04 07:51:38;;;;;;;2.78;0.68;;;;;;;18.51;43.67;101057.28;5014866;28;20037;-69
2024/03/04 07:54:04;;;;;;;1.35;0.52;;;;;;;18.39;43.77;101044.09;5004977;28;20606;-69
2024/03/04 07:56:30;;;;;;;1.25;0.50;;;;;;;18.42;43.72;101046.50;5010312;28;20037;-68
2024/03/04 07:58:56;;;;;;;2.13;0.50;;;;;;;18.54;43.78;101075.53;5011488;28;20052;-68
2024/03/04 08:01:21;;;;;;;2.47;0.70;;;;;;;18.42;44.11;101048.28;5007111;28;20034;-69
2024/03/04 08:03:46;;;;;;;3.35;0.80;;;;;;;18.46;43.80;101058.47;5002224;28;20637;-69
2024/03/04 08:06:12;;;;;;;1.87;0.60;;;;;;;18.56;44.09;101077.06;5010935;28;20041;-68
2024/03/04 08:08:37;;;;;;;2.33;0.60;;;;;;;18.46;43.93;101062.94;5002182;28;20357;-68
2024/03/04 08:11:04;;;;;;;3.05;0.70;;;;;;;18.46;44.14;101060.28;5008011;28;20036;-69
2024/03/04 08:13:29;;;;;;;1.00;0.45;;;;;;;18.41;43.85;101059.81;5014368;28;20039;-69
2024/03/04 08:15:55;;;;;;;1.85;0.70;;;;;;;18.45;44.35;101061.25;5018858;28;20029;-68
2024/03/04 08:18:20;;;;;;;0.98;0.50;;;;;;;18.53;44.58;101089.66;5010440;28;20032;-68
2024/03/04 08:20:48;;;;;;;2.08;0.65;;;;;;;18.43;44.24;101074.56;5013987;28;20426;-67
2024/03/04 08:23:13;;;;;;;1.77;0.65;;;;;;;18.45;44.07;101080.56;5011382;28;20519;-69
2024/03/04 08:25:38;;;;;;;4.00;0.60;;;;;;;18.45;44.11;101082.34;5009658;28;20040;-68
2024/03/04 08:28:05;;;;;;;3.08;0.73;;;;;;;18.44;44.28;101089.44;5012185;28;20293;-68
2024/03/04 08:30:30;;;;;;;1.23;0.60;;;;;;;18.54;44.10;101101.91;5013826;28;20495;-68
2024/03/04 08:32:55;;;;;;;2.05;0.70;;;;;;;18.44;43.91;101085.97;5012204;28;20203;-69
2024/03/04 08:35:21;;;;;;;2.47;0.70;;;;;;;18.45;44.34;101088.50;5011295;28;20033;-67
2024/03/04 08:37:47;;;;;;;1.48;0.70;;;;;;;18.46;44.03;101098.06;5010412;28;20064;-68
2024/03/04 08:40:15;;;;;;;2.72;0.70;;;;;;;18.58;44.22;101114.75;5011965;28;20061;-68
2024/03/04 08:42:41;;;;;;;2.30;0.75;;;;;;;18.56;44.00;101114.00;5010201;28;20087;-68
2024/03/04 08:45:07;;;;;;;1.05;0.52;;;;;;;18.45;44.02;101091.13;5008378;28;20466;-67
2024/03/04 08:47:33;;;;;;;2.55;0.68;;;;;;;18.57;44.07;101114.88;5013314;28;20536;-67
2024/03/04 08:50:00;;;;;;;1.45;0.60;;;;;;;18.46;44.04;101095.44;5006750;28;20419;-68
2024/03/04 08:52:27;;;;;;;2.97;0.70;;;;;;;18.46;44.13;101097.22;5013172;28;20049;-70
2024/03/04 08:54:53;;;;;;;2.50;0.70;;;;;;;18.59;43.87;101121.69;5006667;28;20046;-68
2024/03/04 08:57:19;;;;;;;3.50;0.70;;;;;;;18.43;43.88;101084.28;5008188;28;20111;-68
2024/03/04 08:59:44;;;;;;;1.77;0.60;;;;;;;18.48;43.74;101093.53;5006505;28;20502;-69
2024/03/04 09:02:10;;;;;;;1.73;0.50;;;;;;;18.59;43.54;101116.41;5010017;28;20034;-70
2024/03/04 09:04:36;;;;;;;1.10;0.50;;;;;;;18.56;43.94;101107.91;5008895;28;20057;-69
2024/03/04 09:07:01;;;;;;;3.08;0.70;;;;;;;18.55;43.88;101106.22;5010563;28;20030;-69
2024/03/04 09:09:26;;;;;;;2.00;0.60;;;;;;;18.57;43.79;101106.94;5008177;28;20442;-71
2024/03/04 09:11:52;;;;;;;2.80;0.50;;;;;;;18.56;43.95;101105.25;5011170;28;20037;-68
2024/03/04 09:14:18;;;;;;;2.15;0.70;;;;;;;18.56;43.91;101111.38;5011132;28;20025;-68
2024/03/04 09:16:44;;;;;;;2.05;0.50;;;;;;;18.59;43.83;101115.59;5002519;28;20042;-68
2024/03/04 09:19:10;;;;;;;2.03;0.68;;;;;;;18.46;43.80;101089.31;5000897;28;20312;-69
2024/03/04 09:21:36;;;;;;;2.25;0.88;;;;;;;18.44;43.61;101085.97;5012389;28;20053;-69
2024/03/04 09:24:01;;;;;;;2.15;0.68;;;;;;;18.49;43.97;101095.19;5017819;28;20060;-69
2024/03/04 09:26:27;;;;;;;1.33;0.57;;;;;;;18.58;43.76;101112.13;5020029;28;20040;-71
2024/03/04 09:28:52;;;;;;;1.63;0.52;;;;;;;18.51;43.62;101099.50;5019325;28;20026;-69
2024/03/04 09:31:17;;;;;;;1.23;0.57;;;;;;;18.57;43.56;101104.31;5017244;28;20125;-69
2024/03/04 09:33:44;;;;;;;2.88;0.60;;;;;;;18.48;43.74;101090.88;5008223;28;20112;-65
2024/03/04 09:36:09;;;;;;;1.58;0.63;;;;;;;18.58;43.59;101103.34;5009150;28;20530;-68
2024/03/04 09:38:34;;;;;;;2.58;0.70;;;;;;;18.44;43.64;101080.69;5013029;28;20025;-66
2024/03/04 09:41:00;;;;;;;1.30;0.60;;;;;;;18.59;43.89;101110.31;5008332;28;20263;-70
2024/03/04 09:43:31;;;;;;;3.13;0.68;;;;;;;18.44;43.64;101086.81;5014056;28;20041;-68
2024/03/04 09:45:58;;;;;;;1.70;0.60;;;;;;;18.31;44.06;101065.00;5015563;28;20056;-70
2024/03/04 09:48:25;;;;;;;0.82;0.50;;;;;;;18.50;43.76;101096.06;5007894;28;20101;-72
2024/03/04 09:50:52;;;;;;;3.67;0.65;;;;;;;18.42;43.90;101090.50;5014814;28;20047;-71
2024/03/04 09:53:18;;;;;;;2.70;0.80;;;;;;;18.55;43.68;101112.34;5009608;28;20026;-71
2024/03/04 09:55:44;;;;;;;3.33;0.50;;;;;;;18.50;43.74;101103.97;5005986;28;20088;-69
2024/03/04 09:58:10;;;;;;;2.53;0.90;;;;;;;18.55;43.64;101108.84;5008503;28;20033;-72
2024/03/04 10:00:37;;;;;;;2.97;0.63;;;;;;;18.46;43.45;101098.06;5008617;28;20040;-70
2024/03/04 10:03:06;;;;;;;1.85;0.63;;;;;;;18.58;43.71;101113.88;5008428;28;20193;-70
2024/03/04 10:05:32;;;;;;;2.28;0.60;;;;;;;18.39;43.63;101082.81;5012491;28;20803;-69
2024/03/04 10:07:58;;;;;;;2.65;0.60;;;;;;;18.48;43.82;101101.44;5011428;28;20566;-70
2024/03/04 10:10:23;;;;;;;1.13;0.50;;;;;;;18.46;43.44;101108.63;5017965;28;20033;-71
2024/03/04 10:12:49;;;;;;;1.20;0.50;;;;;;;18.54;43.60;101118.59;5005566;28;20033;-70
2024/03/04 10:15:14;;;;;;;1.13;0.50;;;;;;;18.55;43.43;101125.56;5010011;28;20034;-70
2024/03/04 10:17:41;;;;;;;2.30;0.60;;;;;;;18.54;43.40;101120.38;5013800;28;20052;-72
2024/03/04 10:20:08;;;;;;;2.65;0.73;;;;;;;18.58;43.41;101143.78;5008927;28;20029;-70
2024/03/04 10:22:40;;;;;;;1.65;0.52;;;;;;;18.47;43.53;101118.22;5010212;28;20423;-72
2024/03/04 10:25:08;;;;;;;3.70;0.70;;;;;;;18.58;43.81;101145.56;5011003;28;20029;-71
2024/03/04 10:27:38;;;;;;;1.83;0.60;;;;;;;18.49;43.75;101136.59;5010726;28;20036;-70
2024/03/04 10:30:09;;;;;;;0.77;0.40;;;;;;;18.49;43.67;101136.59;5009911;28;20033;-70
2024/03/04 10:32:34;;;;;;;2.45;0.60;;;;;;;18.44;43.50;101129.03;5009976;28;20240;-71
2024/03/04 10:35:07;;;;;;;1.33;0.50;;;;;;;18.51;43.64;101139.94;5000811;28;20083;-72
2024/03/04 10:37:32;;;;;;;2.97;0.80;;;;;;;18.40;43.29;101122.28;5006777;28;20037;-68
2024/03/04 10:39:58;;;;;;;3.83;0.75;;;;;;;18.57;43.73;101142.09;5007314;28;20391;-69
2024/03/04 10:42:24;;;;;;;3.97;0.93;;;;;;;18.58;43.82;101138.50;5007891;28;20398;-68
2024/03/04 10:44:52;;;;;;;1.83;0.60;;;;;;;18.47;43.60;101125.31;5004110;28;20065;-69
2024/03/04 10:47:20;;;;;;;2.78;0.60;;;;;;;18.49;43.68;101128.66;5013109;28;20037;-70
2024/03/04 10:49:47;;;;;;;2.25;0.60;;;;;;;18.46;43.59;101115.72;5013216;28;20034;-70
2024/03/04 10:52:13;;;;;;;3.75;0.65;;;;;;;18.60;43.65;101147.13;5013548;28;20072;-72
2024/03/04 10:54:38;;;;;;;2.17;0.60;;;;;;;18.60;43.46;101139.22;5013495;28;20062;-69
2024/03/04 10:57:07;;;;;;;1.73;0.70;;;;;;;18.46;43.56;101107.78;5014660;28;20487;-72
2024/03/04 10:59:37;;;;;;;1.58;0.68;;;;;;;18.57;43.46;101125.44;5008392;28;20042;-70
2024/03/04 11:02:10;;;;;;;2.50;0.70;;;;;;;18.60;43.25;101130.47;5011716;28;20125;-70
2024/03/04 11:04:37;;;;;;;1.42;0.65;;;;;;;18.58;43.34;101129.72;5012106;28;20044;-68
2024/03/04 11:07:09;;;;;;;1.80;0.60;;;;;;;18.47;43.20;101120.03;5011497;28;20029;-69
2024/03/04 11:09:37;;;;;;;2.08;0.93;;;;;;;18.51;43.50;101124.09;5012459;28;20042;-72
2024/03/04 11:12:04;;;;;;;1.63;0.60;;;;;;;18.63;43.23;101136.34;5012730;28;20036;-72
2024/03/04 11:14:37;;;;;;;1.33;0.60;;;;;;;18.52;43.16;101115.22;5012090;28;20034;-70
2024/03/04 11:17:26;;;;;;;4.80;1.07;;;;;;;18.58;43.55;101127.09;5009375;28;20026;-72
2024/03/04 11:19:53;;;;;;;2.47;0.80;;;;;;;18.46;43.74;101113.91;5005143;28;20092;-71